Airfield :
LOGIN :

Register | Disclaimer

   EN    FR    IT 

 










Legend :    VFR   Marginal VFR   IFR   Intensive IFR   Very Intensive IFR
Visi :
Ceiling :
>= 8 km
>= 3000ft
5 to 8 km
1000 to 3000 ft
1500m to 5 km
500 to 1000 ft
800 to 1500m
200 to 500 ft
< 800m
< 200 ft
Symbols :   Thunderstorms  Fog  Heavy snow  Heavy precipitations  Wind > 20 kt
SIGMETs :     Misc.  Thunderstorms  Icing  Turbulence  Mountain Waves  Volcanic Ashes







- Airport Elevation : 286 ft
- IATA code : FFD


EGVA - RAF Fairford

CURRENT METAR :
  • 220821Z AUTO 08009KT M M SCT020 SCT026 02/00 A3025 RMK AO2 SLP251 RVRNO $

EXPIRED METARs :
  • 220756Z AUTO 07007KT M M OVC020 02/00 A3024 RMK AO2 OVC V BKN SLP248 T00180002 RVRNO $
  • 220731Z AUTO 07007KT M M FEW014 BKN020 OVC040 02/01 A3024 RMK AO2 CIG 019V040 BKN V SCT SLP248 RVRNO $
  • 220716Z AUTO 07007KT M M FEW013 BKN019 OVC038 02/01 A3023 RMK AO2 CIG 019V038 SLP244 RVRNO $
  • 220656Z AUTO 06007KT M M OVC038 02/01 A3023 RMK AO2 SLP244 T00200005 RVRNO $
  • 220626Z AUTO 05006KT M M SCT008 SCT014 OVC042 02/01 A3023 RMK AO2 SLP244 RVRNO $
  • 220611Z AUTO 05006KT M M BKN008 OVC014 02/01 A3023 RMK AO2 CIG 008V010 SLP244 RVRNO $

Expired Forecast.
No reported NOTAMs for that airfield.



MET'MAP, your aeronautical weather chart ! - Copyright ORBIFLY December 2007 - Disclaimer

ORBIFLY MET'MAP TEAM :

Programming & Development : Alexandra Zaïnal
Concept & Development : Baudouin d'Aumeries
Co-Development & Prog : Marc-Olivier Méhu
Technical & hardware support : Manuel Goepfert

Contact : metmap@orbifly.com




SOURCES & CREDITS :

   NOAA